• Join FlightAware (Why Join?)
  • Login
  • US Flag 
03:02PM EDT


 

Airport Tracker/Info


-or-


 

Live Flight TrackerFlight Track Log ✈ NCA132 ✈ 02-May-2013 ✈ PANC - KORD

Flight Track Log - Related Links

Times and Time Zones

All times are in EDT time to prevent confusion due to time zone crossing. See the NCA132 flight status page for this flight to view local times or setup timezone preferences in your user account.

Time Position Orientation Groundspeed Altitude Reporting Facility
EDT Latitude Longitude Course Direction KTS MPH feet Rate Location/Type
04:18AM 61.1790 -150.0030 270° West 119 137 400  Level FlightAware
04:18AM 61.2020 -150.0160 345° North 197 227 800 1,800 Climbing FlightAware
04:18AM 61.2240 -150.0340 339° North 204 235 2,100 2,460 Climbing FlightAware
04:19AM 61.2480 -150.0720 323° Northwest 234 269 3,100 1,860 Climbing FlightAware
04:19AM 61.2740 -150.1170 320° Northwest 252 290 4,000 1,380 Climbing FlightAware
04:20AM 61.2990 -150.1500 328° Northwest 281 323 4,400 1,020 Climbing FlightAware
04:20AM 61.3090 -150.1520 355° North 286 329 4,600 2,400 Climbing FlightAware
04:20AM 61.3370 -150.1330 18° North 294 338 5,600 2,580 Climbing FlightAware
04:21AM 61.3450 -150.1170 44° Northeast 298 343 5,900 2,640 Climbing FlightAware
04:21AM 61.3540 -150.0790 64° Northeast 297 342 6,700 3,120 Climbing FlightAware
04:21AM 61.3560 -150.0510 82° East 296 341 7,200 2,580 Climbing FlightAware
04:21AM 61.3540 -150.0020 95° East 296 341 8,000 2,520 Climbing FlightAware
04:22AM 61.3490 -149.9360 99° East 305 351 8,900 2,460 Climbing FlightAware
04:22AM 61.3390 -149.7810 98° East 330 380 10,900 1,860 Climbing FlightAware
04:23AM 61.3310 -149.6700 98° East 364 419 11,600 1,080 Climbing FlightAware
04:24AM 61.3190 -149.5100 99° East 408 470 12,400 1,560 Climbing FlightAware
04:25AM 61.3040 -149.3040 99° East 435 501 14,100 2,040 Climbing FlightAware
04:25AM 61.2890 -149.1070 99° East 449 517 15,700 1,920 Climbing FlightAware
04:26AM 61.2760 -148.9330 99° East 466 536 16,900 1,800 Climbing FlightAware
04:27AM 61.2610 -148.7440 99° East 475 547 18,300 1,920 Climbing FlightAware
04:27AM 61.2460 -148.5540 99° East 483 556 19,700 1,260 Climbing FlightAware
04:28AM 61.2350 -148.4210 100° East 485 558 19,900 120 Climbing FlightAware
04:29AM 61.2180 -148.2260 100° East 485 558 19,900  Level FlightAware
04:30AM 61.2050 -148.0700 100° East 485 558 19,900 2,700 Level FlightAware
04:30AM 61.1830 -147.7840 99° East 512 589 23,500 2,700 Climbing FlightAware
04:31AM 61.1710 -147.6190 99° East 512 589 23,500  Level FlightAware
04:32AM 61.1580 -147.4550 99° East 512 589 23,500  Level FlightAware
04:32AM 61.1420 -147.2480 99° East 512 589 23,500  Level FlightAware
04:33AM 61.1300 -147.0840 99° East 512 589 23,500  Level FlightAware
04:34AM 61.1170 -146.9190 99° East 512 589 23,500 4,200 Level FlightAware
04:35AM 61.0500 -146.4500 99° East 520 598 30,900 4,320 Climbing Anchorage Center
04:36AM 61.0167 -146.1500 103° East 520 598 32,600 1,020 Climbing Anchorage Center
04:37AM 61.0000 -145.8667 97° East 510 587 33,000 180 Climbing Anchorage Center
04:38AM 60.9667 -145.5833 104° East 500 575 33,000  Level Anchorage Center
04:39AM 60.9333 -145.3000 103° East 500 575 33,000  Level Anchorage Center
04:40AM 60.9000 -145.0167 103° East 500 575 33,000  Level Anchorage Center
04:41AM 60.8833 -144.7333 97° East 500 575 33,000  Level Anchorage Center
04:42AM 60.8500 -144.4500 103° East 500 575 33,000  Level Anchorage Center
04:43AM 60.8167 -144.1667 103° East 490 564 33,000  Level Anchorage Center
04:44AM 60.7833 -143.8833 103° East 500 575 33,000  Level Anchorage Center
04:45AM 60.7500 -143.6167 104° East 500 575 33,000  Level Anchorage Center
04:46AM 60.7167 -143.3333 103° East 500 575 33,000  Level Anchorage Center
04:47AM 60.6833 -143.0500 103° East 500 575 33,000  Level Anchorage Center
04:48AM 60.6333 -142.7667 110° East 500 575 33,000  Level Anchorage Center
04:49AM 60.6000 -142.4833 103° East 500 575 33,000  Level Anchorage Center
04:50AM 60.5667 -142.2167 104° East 500 575 33,000  Level Anchorage Center
04:51AM 60.5333 -141.9333 103° East 500 575 33,000  Level Anchorage Center
04:52AM 60.5000 -141.6667 104° East 510 587 33,000  Level Anchorage Center
04:53AM 60.4500 -141.3833 110° East 500 575 33,000  Level Anchorage Center
04:54AM 60.4167 -141.1167 104° East 510 587 33,000  Level Anchorage Center
04:55AM 60.3833 -140.8333 103° East 500 575 33,000  Level Anchorage Center
04:56AM 60.3500 -140.5667 104° East 500 575 33,000  Level Anchorage Center
04:57AM 60.3000 -140.3000 111° Southeast 500 575 33,000  Level Anchorage Center
04:58AM 60.2667 -140.0333 104° East 500 575 33,000  Level Anchorage Center
04:59AM 60.2167 -139.7500 109° East 500 575 33,000  Level Anchorage Center
05:00AM 60.1833 -139.4833 104° East 490 564 33,000  Level Anchorage Center
05:01AM 60.1333 -139.2333 112° Southeast 470 541 33,000  Level Anchorage Center
05:02AM 60.1000 -138.9833 105° East 480 552 33,000  Level Anchorage Center
05:03AM 60.0667 -138.7167 104° East 480 552 33,000  Level Anchorage Center
05:04AM 60.0333 -138.4500 104° East 480 552 33,000  Level Anchorage Center
05:05AM 60.0167 -138.2000 97° East 470 541 33,000  Level Anchorage Center
05:07AM 59.9634 -137.7509 103° East  Level FlightAware Approximate
05:14AM 59.7232 -135.8809 104° East  Level FlightAware Approximate
05:15AM 59.6868 -135.6160 105° East  Level FlightAware Approximate
05:16AM 59.6498 -135.3517 105° East  Level FlightAware Approximate
05:17AM 59.6122 -135.0879 106° East  Level FlightAware Approximate
05:18AM 59.5742 -134.8248 106° East  Level FlightAware Approximate
05:19AM 59.5356 -134.5622 106° East  Level FlightAware Approximate
05:20AM 59.4965 -134.3003 106° East  Level FlightAware Approximate
05:21AM 59.4569 -134.0390 107° East  Level FlightAware Approximate
05:22AM 59.4167 -133.7783 107° East  Level FlightAware Approximate
05:23AM 59.3760 -133.5182 107° East  Level FlightAware Approximate
05:24AM 59.3349 -133.2587 107° East  Level FlightAware Approximate
05:25AM 59.2932 -132.9999 107° East  Level FlightAware Approximate
05:26AM 59.2510 -132.7417 108° East  Level FlightAware Approximate
05:27AM 59.2082 -132.4841 108° East  Level FlightAware Approximate
05:28AM 59.1650 -132.2272 108° East  Level FlightAware Approximate
05:29AM 59.1213 -131.9710 108° East  Level FlightAware Approximate
05:30AM 59.0770 -131.7154 109° East  Level FlightAware Approximate
05:31AM 59.0323 -131.4605 109° East  Level FlightAware Approximate
05:32AM 58.9871 -131.2062 109° East  Level FlightAware Approximate
05:33AM 58.9413 -130.9526 109° East  Level FlightAware Approximate
05:34AM 58.8951 -130.6997 109° East  Level FlightAware Approximate
05:35AM 58.8484 -130.4474 110° East  Level FlightAware Approximate
05:36AM 58.8012 -130.1959 110° East  Level FlightAware Approximate
05:37AM 58.7535 -129.9450 110° East  Level FlightAware Approximate
05:38AM 58.7053 -129.6948 110° East  Level FlightAware Approximate
05:39AM 58.6566 -129.4454 110° East  Level FlightAware Approximate
05:40AM 58.6075 -129.1966 111° Southeast  Level FlightAware Approximate
05:41AM 58.5578 -128.9485 111° Southeast  Level FlightAware Approximate
05:42AM 58.5077 -128.7011 111° Southeast  Level FlightAware Approximate
05:43AM 58.4571 -128.4544 111° Southeast  Level FlightAware Approximate
05:44AM 58.4061 -128.2085 112° Southeast  Level FlightAware Approximate
05:45AM 58.3546 -127.9632 112° Southeast  Level FlightAware Approximate
05:46AM 58.3026 -127.7187 112° Southeast  Level FlightAware Approximate
05:47AM 58.2501 -127.4749 112° Southeast  Level FlightAware Approximate
05:48AM 58.1972 -127.2318 112° Southeast  Level FlightAware Approximate
05:49AM 58.1438 -126.9895 113° Southeast  Level FlightAware Approximate
05:50AM 58.0900 -126.7478 113° Southeast  Level FlightAware Approximate
05:51AM 58.0357 -126.5069 113° Southeast  Level FlightAware Approximate
05:52AM 57.9811 -126.2667 113° Southeast  Level FlightAware Approximate
05:53AM 57.9263 -126.0270 113° Southeast  Level FlightAware Approximate
05:54AM 57.8710 -125.7879 113° Southeast  Level FlightAware Approximate
05:55AM 57.8153 -125.5497 114° Southeast  Level FlightAware Approximate
05:56AM 57.7592 -125.3121 114° Southeast  Level FlightAware Approximate
05:57AM 57.7026 -125.0754 114° Southeast  Level FlightAware Approximate
05:58AM 57.6455 -124.8393 114° Southeast  Level FlightAware Approximate
05:59AM 57.5881 -124.6040 114° Southeast  Level FlightAware Approximate
05:59AM 57.5167 -124.4167 115° Southeast 540 621 33,000  Level Edmonton Center
06:00AM 57.5301 -124.3694 115° Southeast  Level FlightAware Approximate
06:00AM 57.4500 -124.1500 115° Southeast 540 621 33,000  Level Edmonton Center
06:01AM 57.4718 -124.1356 115° Southeast  Level FlightAware Approximate
06:01AM 57.3833 -123.8833 115° Southeast 530 610 33,000  Level Edmonton Center
06:02AM 57.4130 -123.9025 115° Southeast  Level FlightAware Approximate
06:02AM 57.3167 -123.6667 120° Southeast 530 610 33,000  Level Edmonton Center
06:03AM 57.3538 -123.6702 115° Southeast  Level FlightAware Approximate
06:03AM 57.2667 -123.4000 109° East 530 610 33,000  Level Edmonton Center
06:04AM 57.2942 -123.4387 115° Southeast  Level FlightAware Approximate
06:04AM 57.2000 -123.1833 120° Southeast 530 610 33,000  Level Edmonton Center
06:05AM 57.1333 -122.9167 115° Southeast 530 610 33,000  Level Edmonton Center
06:06AM 57.0667 -122.6667 116° Southeast 530 610 33,000  Level Edmonton Center
06:07AM 57.0000 -122.4333 118° Southeast 530 610 33,000  Level Edmonton Center
06:08AM 56.9333 -122.1667 115° Southeast 540 621 33,000  Level Edmonton Center
06:09AM 56.8667 -121.9167 116° Southeast 540 621 33,000  Level Edmonton Center
06:10AM 56.8000 -121.7000 119° Southeast 540 621 33,000  Level Edmonton Center
06:11AM 56.7167 -121.4333 120° Southeast 540 621 33,000  Level Edmonton Center
06:12AM 56.6500 -121.1833 116° Southeast 550 633 33,000  Level Edmonton Center
06:13AM 56.5833 -120.9333 116° Southeast 550 633 33,000  Level Edmonton Center
06:14AM 56.5000 -120.6833 121° Southeast 550 633 33,000  Level Edmonton Center
06:15AM 56.4333 -120.4333 116° Southeast 550 633 33,000  Level Edmonton Center
06:16AM 56.3667 -120.1833 116° Southeast 550 633 33,000  Level Edmonton Center
06:17AM 56.2833 -119.9333 121° Southeast 550 633 33,000  Level Edmonton Center
06:18AM 56.2167 -119.7167 119° Southeast 550 633 33,000  Level Edmonton Center
06:19AM 56.1333 -119.4667 121° Southeast 550 633 33,000  Level Edmonton Center
06:20AM 56.0667 -119.2333 117° Southeast 550 633 33,000  Level Edmonton Center
06:21AM 56.0000 -118.9833 115° Southeast 550 633 33,000  Level Edmonton Center
06:22AM 55.9167 -118.7333 121° Southeast 550 633 33,000  Level Edmonton Center
06:23AM 55.8500 -118.5000 117° Southeast 540 621 33,000  Level Edmonton Center
06:24AM 55.7667 -118.2833 124° Southeast 550 633 33,000  Level Edmonton Center
06:25AM 55.6833 -118.0500 122° Southeast 540 621 33,000  Level Edmonton Center
06:26AM 55.6167 -117.8000 115° Southeast 540 621 33,000  Level Edmonton Center
06:27AM 55.5333 -117.5667 122° Southeast 540 621 33,000  Level Edmonton Center
06:28AM 55.4500 -117.3333 122° Southeast 540 621 33,000  Level Edmonton Center
06:29AM 55.3833 -117.0833 115° Southeast 540 621 33,000  Level Edmonton Center
06:30AM 55.3000 -116.8833 126° Southeast 540 621 33,000  Level Edmonton Center
06:31AM 55.2333 -116.6500 117° Southeast 540 621 33,000  Level Edmonton Center
06:32AM 55.1500 -116.4167 122° Southeast 540 621 33,000  Level Edmonton Center
06:37AM 54.7440 -115.2100 122° Southeast 542 624 33,000  Level FlightAware
06:38AM 54.6870 -115.0550 122° Southeast 543 625 33,000  Level FlightAware
06:39AM 54.6320 -114.9090 123° Southeast 540 621 33,000  Level FlightAware
06:39AM 54.5700 -114.7420 123° Southeast 541 623 33,000  Level FlightAware
06:40AM 54.5190 -114.6060 123° Southeast 542 624 33,000  Level FlightAware
06:41AM 54.4550 -114.4390 123° Southeast 544 626 33,000  Level FlightAware
06:41AM 54.4080 -114.3140 123° Southeast 545 627 33,000  Level FlightAware
06:42AM 54.3390 -114.1360 124° Southeast 545 627 33,000  Level FlightAware
06:43AM 54.2780 -113.9750 123° Southeast 549 632 33,000  Level FlightAware
06:44AM 54.2200 -113.8260 124° Southeast 549 632 33,000  Level FlightAware
06:44AM 54.1640 -113.6830 124° Southeast 549 632 33,000  Level FlightAware
06:45AM 54.1000 -113.5200 124° Southeast 549 632 33,000  Level FlightAware
06:46AM 54.0420 -113.3750 124° Southeast 548 631 33,000  Level FlightAware
06:46AM 53.9870 -113.2350 124° Southeast 548 631 33,000  Level FlightAware
06:47AM 53.9210 -113.0710 124° Southeast 547 629 33,000  Level FlightAware
06:48AM 53.8650 -112.9330 124° Southeast 547 629 33,000  Level FlightAware
06:48AM 53.8000 -112.7710 124° Southeast 544 626 33,000  Level FlightAware
06:49AM 53.7430 -112.6330 125° Southeast 545 627 33,000  Level FlightAware
06:50AM 53.6790 -112.4740 124° Southeast 546 628 33,000  Level FlightAware
06:51AM 53.6200 -112.3310 125° Southeast 547 629 33,000  Level FlightAware
06:51AM 53.5610 -112.1910 125° Southeast 547 629 33,000  Level FlightAware
06:52AM 53.5020 -112.0490 125° Southeast 547 629 33,000  Level FlightAware
06:53AM 53.4370 -111.8930 125° Southeast 545 627 33,000  Level FlightAware
06:54AM 53.3520 -111.6930 125° Southeast 544 626 33,000  Level FlightAware
06:54AM 53.2910 -111.5490 125° Southeast 544 626 33,000  Level FlightAware
06:56AM 53.1710 -111.2700 126° Southeast 550 633 33,000  Level FlightAware
06:57AM 53.0970 -111.0940 125° Southeast 550 633 33,000  Level FlightAware
06:57AM 53.0360 -110.9580 127° Southeast 549 632 33,000  Level FlightAware
06:58AM 52.9700 -110.7970 124° Southeast 33,000  Level FlightAware
06:59AM 52.8667 -110.6000 124° Southeast 540 621 33,000  Level Edmonton Center
07:00AM 52.8000 -110.3833 117° Southeast 540 621 33,000  Level Edmonton Center
07:01AM 52.7167 -110.1500 120° Southeast 540 621 33,000  Level Edmonton Center
07:02AM 52.6500 -109.9500 119° Southeast 540 621 33,000  Level Edmonton Center
07:03AM 52.5667 -109.7500 124° Southeast 540 621 33,000  Level Edmonton Center
07:04AM 52.4833 -109.5167 120° Southeast 540 621 33,000  Level Edmonton Center
07:05AM 52.4000 -109.3167 124° Southeast 540 621 33,000  Level Edmonton Center
07:06AM 52.3333 -109.1167 119° Southeast 530 610 33,000  Level Edmonton Center
07:07AM 52.2500 -108.8833 120° Southeast 540 621 33,000  Level Edmonton Center
07:08AM 52.1667 -108.6833 124° Southeast 540 621 33,000  Level Edmonton Center
07:09AM 52.1000 -108.4500 115° Southeast 540 621 33,000  Level Edmonton Center
07:10AM 52.0167 -108.2500 124° Southeast 530 610 33,000  Level Edmonton Center
07:11AM 51.9333 -108.0667 126° Southeast 530 610 33,000  Level Edmonton Center
07:12AM 51.8667 -107.8333 115° Southeast 530 610 33,000  Level Edmonton Center
07:13AM 51.7833 -107.6333 124° Southeast 530 610 33,000  Level Edmonton Center
07:14AM 51.7000 -107.4500 126° Southeast 530 610 33,000  Level Edmonton Center
07:15AM 51.6167 -107.2500 124° Southeast 530 610 33,000  Level Edmonton Center
07:20AM 51.3010 -106.3870 124° Southeast 527 606 33,000  Level FlightAware
07:21AM 51.2160 -106.1790 123° Southeast 527 606 33,000  Level FlightAware
07:22AM 51.1510 -106.0250 124° Southeast 526 605 33,000  Level FlightAware
07:23AM 51.1100 -105.9270 124° Southeast 526 605 33,000  Level FlightAware
07:23AM 51.0530 -105.7890 123° Southeast 527 606 33,000  Level FlightAware
07:24AM 51.0050 -105.6750 124° Southeast 527 606 33,000  Level FlightAware
07:25AM 50.9500 -105.5470 124° Southeast 527 606 33,000  Level FlightAware
07:25AM 50.8990 -105.4280 124° Southeast 528 608 33,000  Level FlightAware
07:26AM 50.7990 -105.1940 124° Southeast 528 608 33,000  Level FlightAware
07:27AM 50.7410 -105.0610 125° Southeast 528 608 33,000  Level FlightAware
07:28AM 50.6990 -104.9630 124° Southeast 529 609 33,000  Level FlightAware
07:28AM 50.6270 -104.8260 130° Southeast 534 615 33,000  Level FlightAware
07:29AM 50.5730 -104.7390 134° Southeast 536 617 33,000  Level FlightAware
07:30AM 50.4900 -104.6070 135° Southeast 535 616 33,000  Level FlightAware
07:30AM 50.4240 -104.5010 134° Southeast 534 615 33,000  Level FlightAware
07:31AM 50.3620 -104.4030 135° Southeast 533 613 33,000  Level FlightAware
07:32AM 50.2770 -104.2690 135° Southeast 535 616 33,000  Level FlightAware
07:32AM 50.2330 -104.1980 134° Southeast 536 617 33,000  Level FlightAware
07:33AM 50.1710 -104.1030 136° Southeast 538 619 33,000  Level FlightAware
07:34AM 50.1120 -104.0090 134° Southeast 539 620 33,000  Level FlightAware
07:35AM 50.0530 -103.9140 134° Southeast 539 620 33,000  Level FlightAware
07:35AM 49.9940 -103.8190 134° Southeast 539 620 33,000  Level FlightAware
07:36AM 49.9210 -103.7010 134° Southeast 539 620 33,000  Level FlightAware
07:37AM 49.8620 -103.6060 134° Southeast 539 620 33,000  Level FlightAware
07:37AM 49.5640 -103.1730 137° Southeast 532 612 33,000  Level FlightAware
07:38AM 49.4910 -103.0640 136° Southeast 531 611 33,000  Level FlightAware
07:39AM 49.4300 -102.9700 135° Southeast 531 611 33,000  Level FlightAware
07:39AM 49.3520 -102.8570 137° Southeast 527 606 33,000  Level FlightAware
07:40AM 49.2700 -102.7360 136° Southeast 526 605 33,000  Level FlightAware
07:41AM 49.2010 -102.6330 136° Southeast 526 605 33,000  Level FlightAware
07:42AM 49.1290 -102.5220 135° Southeast 521 600 33,000  Level FlightAware
07:42AM 49.0750 -102.3950 123° Southeast 514 592 33,000  Level FlightAware
07:43AM 49.0160 -102.2280 118° Southeast 513 590 33,000  Level FlightAware
07:44AM 48.9780 -102.1190 118° Southeast 513 590 33,000  Level FlightAware
07:45AM 48.9000 -101.9060 119° Southeast 511 588 33,000  Level FlightAware
07:45AM 48.8620 -101.8010 119° Southeast 513 590 33,000  Level FlightAware
07:46AM 48.8020 -101.6340 119° Southeast 513 590 33,000  Level FlightAware
07:47AM 48.7620 -101.5220 118° Southeast 514 592 33,000  Level FlightAware
07:48AM 48.7240 -101.4140 118° Southeast 514 592 33,000  Level FlightAware
07:48AM 48.6530 -101.2280 120° Southeast 513 590 33,000  Level FlightAware
07:49AM 48.6190 -101.1380 120° Southeast 511 588 33,000  Level FlightAware
07:50AM 48.5730 -101.0120 119° Southeast 511 588 33,000  Level FlightAware
07:51AM 48.4910 -100.7960 120° Southeast 510 587 33,000  Level FlightAware
07:51AM 48.4450 -100.6740 120° Southeast 509 586 33,000  Level FlightAware
07:52AM 48.3820 -100.5060 119° Southeast 511 588 33,000  Level FlightAware
07:53AM 48.3270 -100.3630 120° Southeast 510 587 33,000  Level FlightAware
07:54AM 48.2810 -100.2430 120° Southeast 510 587 33,000  Level FlightAware
07:54AM 48.2340 -100.1200 120° Southeast 510 587 33,000  Level FlightAware
07:55AM 48.1790 -99.9780 120° Southeast 508 585 33,000  Level FlightAware
07:56AM 48.1340 -99.8620 120° Southeast 505 581 33,000  Level FlightAware
07:57AM 48.0870 -99.7430 121° Southeast 503 579 33,000  Level FlightAware
07:57AM 48.0350 -99.6090 120° Southeast 501 577 33,000  Level FlightAware
07:58AM 47.9870 -99.4880 121° Southeast 501 577 33,000  Level FlightAware
07:59AM 47.9340 -99.3530 120° Southeast 498 573 33,000  Level FlightAware
07:59AM 47.8860 -99.2340 121° Southeast 496 571 33,000  Level FlightAware
08:00AM 47.8390 -99.1170 121° Southeast 495 570 33,000  Level FlightAware
08:01AM 47.7890 -98.9910 121° Southeast 492 566 33,000  Level FlightAware
08:01AM 47.7420 -98.8740 121° Southeast 489 563 33,000  Level FlightAware
08:02AM 47.6880 -98.7420 121° Southeast 489 563 33,000  Level FlightAware
08:03AM 47.6490 -98.6450 121° Southeast 490 564 33,000  Level FlightAware
08:04AM 47.5970 -98.5180 121° Southeast 490 564 33,000  Level FlightAware
08:04AM 47.5570 -98.4210 121° Southeast 490 564 33,000  Level FlightAware
08:05AM 47.5180 -98.3230 120° Southeast 490 564 33,000  Level FlightAware
08:06AM 47.4470 -98.1560 122° Southeast 486 559 33,000  Level FlightAware
08:06AM 47.4030 -98.0490 121° Southeast 483 556 33,000  Level FlightAware
08:07AM 47.3550 -97.9350 122° Southeast 481 554 33,000  Level FlightAware
08:08AM 47.3070 -97.8200 122° Southeast 477 549 33,000  Level FlightAware
08:08AM 47.2560 -97.6990 122° Southeast 475 547 33,000  Level FlightAware
08:09AM 47.2040 -97.5750 122° Southeast 471 542 33,000  Level FlightAware
08:10AM 47.1570 -97.4650 122° Southeast 467 537 33,000  Level FlightAware
08:11AM 47.1070 -97.3490 122° Southeast 463 533 33,000  Level FlightAware
08:11AM 47.0620 -97.2430 122° Southeast 459 528 33,000  Level FlightAware
08:12AM 47.0000 -97.0990 122° Southeast 452 520 33,000  Level FlightAware
08:13AM 46.9500 -96.9820 122° Southeast 444 511 33,000  Level FlightAware
08:14AM 46.9060 -96.8820 123° Southeast 439 505 33,000  Level FlightAware
08:14AM 46.8630 -96.7840 123° Southeast 436 502 33,000  Level FlightAware
08:15AM 46.8150 -96.6740 122° Southeast 433 498 33,000  Level FlightAware
08:16AM 46.7710 -96.5740 123° Southeast 432 497 33,000  Level FlightAware
08:16AM 46.7250 -96.4690 123° Southeast 433 498 33,000  Level FlightAware
08:17AM 46.6790 -96.3660 123° Southeast 435 501 33,000  Level FlightAware
08:18AM 46.6350 -96.2670 123° Southeast 436 502 33,000  Level FlightAware
08:18AM 46.5880 -96.1600 123° Southeast 436 502 33,000  Level FlightAware
08:19AM 46.5440 -96.0630 123° Southeast 436 502 33,000  Level FlightAware
08:20AM 46.4930 -95.9490 123° Southeast 436 502 33,000  Level FlightAware
08:21AM 46.4510 -95.8540 123° Southeast 437 503 33,000  Level FlightAware
08:21AM 46.4040 -95.7520 124° Southeast 437 503 33,000  Level FlightAware
08:22AM 46.3580 -95.6500 123° Southeast 436 502 33,000  Level FlightAware
08:23AM 46.3120 -95.5490 123° Southeast 436 502 33,000  Level FlightAware
08:23AM 46.2670 -95.4500 123° Southeast 436 502 33,000  Level FlightAware
08:24AM 46.2160 -95.3390 124° Southeast 437 503 33,000  Level FlightAware
08:25AM 46.1710 -95.2420 124° Southeast 437 503 33,000  Level FlightAware
08:25AM 46.1220 -95.1350 123° Southeast 437 503 33,000  Level FlightAware
08:26AM 46.0770 -95.0380 124° Southeast 439 505 33,000  Level FlightAware
08:27AM 46.0320 -94.9410 124° Southeast 439 505 33,000  Level FlightAware
08:28AM 45.9790 -94.8290 124° Southeast 438 504 33,000  Level FlightAware
08:28AM 45.9370 -94.7380 124° Southeast 439 505 33,000  Level FlightAware
08:29AM 45.8830 -94.6250 124° Southeast 440 506 33,000  Level FlightAware
08:30AM 45.8380 -94.5290 124° Southeast 441 507 33,000  Level FlightAware
08:30AM 45.7910 -94.4310 124° Southeast 442 509 33,000  Level FlightAware
08:31AM 45.7420 -94.3280 124° Southeast 441 507 33,000  Level FlightAware
08:32AM 45.6950 -94.2280 124° Southeast 442 509 33,000  Level FlightAware
08:32AM 45.6430 -94.1190 124° Southeast 443 510 33,000  Level FlightAware
08:33AM 45.5970 -94.0240 125° Southeast 445 512 33,000  Level FlightAware
08:34AM 45.5490 -93.9250 125° Southeast 446 513 33,000  Level FlightAware
08:35AM 45.4970 -93.8180 125° Southeast 447 514 33,000  Level FlightAware
08:35AM 45.4500 -93.7210 125° Southeast 447 514 33,000  Level FlightAware
08:36AM 45.4020 -93.6230 125° Southeast 447 514 33,000  Level FlightAware
08:37AM 45.3490 -93.5140 125° Southeast 447 514 33,000  Level FlightAware
08:37AM 45.3020 -93.4190 125° Southeast 447 514 33,000  Level FlightAware
08:38AM 45.2540 -93.3220 125° Southeast 447 514 33,000  Level FlightAware
08:39AM 45.2050 -93.2230 125° Southeast 448 516 33,000  Level FlightAware
08:39AM 45.1480 -93.1070 125° Southeast 450 518 33,000  Level FlightAware
08:40AM 45.0990 -93.0090 125° Southeast 451 519 33,000  Level FlightAware
08:41AM 45.0550 -92.9200 125° Southeast 452 520 33,000  Level FlightAware
08:42AM 45.0040 -92.8190 126° Southeast 454 522 33,000  Level FlightAware
08:42AM 44.9570 -92.7270 126° Southeast 454 522 33,000  Level FlightAware
08:43AM 44.8930 -92.5990 125° Southeast 456 525 33,000  Level FlightAware
08:44AM 44.8440 -92.5040 126° Southeast 459 528 33,000  Level FlightAware
08:44AM 44.7820 -92.4100 133° Southeast 442 509 33,000  Level FlightAware
08:45AM 44.7170 -92.3380 142° Southeast 444 511 33,000  Level FlightAware
08:46AM 44.6520 -92.2650 141° Southeast 448 516 33,000  Level FlightAware
08:46AM 44.5890 -92.1940 141° Southeast 449 517 33,000  Level FlightAware
08:47AM 44.5130 -92.1080 141° Southeast 448 516 33,000  Level FlightAware
08:48AM 44.4430 -92.0290 141° Southeast 448 516 33,000  Level FlightAware
08:49AM 44.3780 -91.9580 142° Southeast 448 516 33,000  Level FlightAware
08:49AM 44.3120 -91.8860 142° Southeast 450 518 33,000  Level FlightAware
08:50AM 44.2400 -91.8070 142° Southeast 454 522 33,000  Level FlightAware
08:51AM 44.1770 -91.7210 136° Southeast 464 534 33,000  Level FlightAware
08:51AM 44.1180 -91.6160 128° Southeast 476 548 33,000  Level FlightAware
08:52AM 44.0830 -91.5380 122° Southeast 482 555 33,000  Level FlightAware
08:53AM 44.0380 -91.4310 120° Southeast 486 559 33,000  Level FlightAware
08:53AM 43.9930 -91.3200 119° Southeast 489 563 33,000  Level FlightAware
08:54AM 43.9430 -91.1990 120° Southeast 490 564 33,000 -480 Level FlightAware
08:55AM 43.8960 -91.0870 120° Southeast 486 559 32,400 -1,140 Descending FlightAware
08:55AM 43.8460 -90.9670 120° Southeast 491 565 31,400 -1,020 Descending FlightAware
08:56AM 43.8010 -90.8590 120° Southeast 492 566 31,000 -300 Descending FlightAware
08:57AM 43.7560 -90.7520 120° Southeast 497 572 31,000 -180 Level FlightAware
08:57AM 43.7020 -90.6250 120° Southeast 489 563 30,800 -780 Descending FlightAware
08:58AM 43.6560 -90.5180 121° Southeast 488 562 29,900 -1,440 Descending FlightAware
08:59AM 43.6180 -90.4280 120° Southeast 489 563 29,000 -1,440 Descending FlightAware
08:59AM 43.5750 -90.3270 120° Southeast 482 555 28,100 -1,620 Descending FlightAware
09:00AM 43.5150 -90.1870 121° Southeast 475 547 26,600 -1,680 Descending FlightAware
09:01AM 43.4790 -90.1040 121° Southeast 469 540 25,800 -1,500 Descending FlightAware
09:02AM 43.4210 -89.9690 121° Southeast 456 525 24,500 -1,620 Descending FlightAware
09:02AM 43.3790 -89.8740 121° Southeast 452 520 23,400 -1,500 Descending FlightAware
09:03AM 43.3340 -89.7700 121° Southeast 444 511 22,400 -1,380 Descending FlightAware
09:04AM 43.2890 -89.6670 121° Southeast 435 501 21,500 -1,380 Descending FlightAware
09:04AM 43.2430 -89.5630 121° Southeast 423 487 20,500 -1,500 Descending FlightAware
09:05AM 43.2030 -89.4710 121° Southeast 415 478 19,400 -1,740 Descending FlightAware
09:06AM 43.1590 -89.3750 122° Southeast 406 467 18,100 -1,800 Descending FlightAware
09:07AM 43.0950 -89.3200 148° Southeast 379 436 16,900 -1,740 Descending FlightAware
09:07AM 43.0320 -89.2940 163° South 370 426 15,800 -1,740 Descending FlightAware
09:08AM 42.9680 -89.2680 163° South 360 414 14,600 -1,860 Descending FlightAware
09:09AM 42.8940 -89.2390 164° South 351 404 13,200 -1,320 Descending FlightAware
09:09AM 42.8290 -89.2130 164° South 322 371 12,700 -360 Descending FlightAware
09:10AM 42.7780 -89.1840 157° South 327 376 12,700  Level FlightAware
09:10AM 42.7620 -89.1630 136° Southeast 335 386 12,700  Level FlightAware
09:11AM 42.7200 -89.0900 128° Southeast 335 386 12,700  Level FlightAware
09:12AM 42.6770 -89.0160 128° Southeast 313 360 12,700  Level FlightAware
09:12AM 42.6420 -88.9560 128° Southeast 301 346 12,700 -420 Level FlightAware
09:13AM 42.6110 -88.9030 128° Southeast 282 325 12,200 -1,020 Descending FlightAware
09:14AM 42.5760 -88.8420 128° Southeast 271 312 11,300 -1,440 Descending FlightAware
09:14AM 42.5430 -88.7850 128° Southeast 278 320 10,200 -1,440 Descending FlightAware
09:15AM 42.5240 -88.7530 129° Southeast 278 320 9,800 -1,140 Descending FlightAware
09:15AM 42.5000 -88.7120 128° Southeast 277 319 9,200 -1,020 Descending FlightAware
09:16AM 42.4750 -88.6690 128° Southeast 278 320 8,800 -600 Descending FlightAware
09:16AM 42.4540 -88.6330 128° Southeast 274 315 8,700 -120 Descending FlightAware
09:17AM 42.4300 -88.5930 129° Southeast 274 315 8,700  Level FlightAware
09:17AM 42.4110 -88.5610 129° Southeast 271 312 8,700  Level FlightAware
09:18AM 42.3960 -88.5350 128° Southeast 270 311 8,700  Level FlightAware
09:18AM 42.3770 -88.4990 126° Southeast 275 316 8,700  Level FlightAware
09:18AM 42.3610 -88.4520 115° Southeast 260 299 8,700 -300 Level FlightAware
09:19AM 42.3520 -88.4350 126° Southeast 241 277 8,500 -960 Descending FlightAware
09:19AM 42.3450 -88.4290 148° Southeast 234 269 8,300 -1,440 Descending FlightAware
09:19AM 42.3290 -88.4240 167° South 231 266 7,900 -1,920 Descending FlightAware
09:20AM 42.2940 -88.4210 176° South 238 274 6,900 -1,320 Descending FlightAware
09:20AM 42.2660 -88.4180 175° South 238 274 6,700 -300 Descending FlightAware
09:20AM 42.2490 -88.4160 175° South 238 274 6,700  Level FlightAware
09:21AM 42.2230 -88.4140 177° South 238 274 6,700  Level FlightAware
09:21AM 42.1960 -88.4110 175° South 239 275 6,700  Level FlightAware
09:21AM 42.1740 -88.4080 174° South 236 272 6,700 -720 Level FlightAware
09:22AM 42.1400 -88.4040 175° South 236 272 6,100 -1,140 Descending FlightAware
09:22AM 42.1130 -88.4010 175° South 234 269 5,700 -720 Descending FlightAware
09:23AM 42.1030 -88.4000 176° South 238 274 5,700  Level FlightAware
09:23AM 42.0630 -88.3950 175° South 235 270 5,700 -120 Level FlightAware
09:24AM 42.0370 -88.3920 175° South 227 261 5,600 -780 Descending FlightAware
09:24AM 42.0090 -88.3790 161° South 227 261 5,000 -1,080 Descending FlightAware
09:24AM 42.0010 -88.3610 121° Southeast 229 264 4,800 -480 Descending FlightAware
09:25AM 41.9900 -88.3280 114° Southeast 229 264 4,700 -120 Descending FlightAware
09:25AM 41.9780 -88.2880 112° Southeast 229 264 4,700  Level FlightAware
09:26AM 41.9690 -88.2570 111° Southeast 231 266 4,700 120 Level FlightAware
09:26AM 41.9680 -88.2340 93° East 234 269 4,800 -720 Climbing FlightAware
09:26AM 41.9680 -88.1910 90° East 233 268 4,200 -1,200 Descending FlightAware
09:27AM 41.9680 -88.1500 90° East 219 252 3,600 -1,200 Descending FlightAware
09:27AM 41.9680 -88.1240 90° East 200 230 3,200 -1,140 Descending FlightAware
09:28AM 41.9690 -88.0820 88° East 180 207 2,600 -1,020 Descending FlightAware
09:28AM 41.9690 -88.0480 90° East 176 203 2,100 -840 Descending FlightAware
09:29AM 41.9690 -88.0320 90° East 170 196 1,900 -900 Descending FlightAware
09:29AM 41.9690 -87.9920 90° East 169 194 1,300 -1,080 Descending FlightAware
09:30AM 41.9690 -87.9530 90° East 169 194 700 -900 Descending FlightAware
09:30AM 41.9690 -87.9300 90° East 166 191 400 -360 Descending FlightAware
09:31AM 41.9690 -87.9050 90° East 166 191 400  Level FlightAware